sensor_id;sensor_type;location;lat;lon;timestamp;temperature;humidity
64501;DHT22;50874;24.150;-110.320;2023-06-04T00:02:01;33.40;72.70
64501;DHT22;50874;24.150;-110.320;2023-06-04T00:04:28;33.10;73.20
64501;DHT22;50874;24.150;-110.320;2023-06-04T00:06:55;33.10;73.50
64501;DHT22;50874;24.150;-110.320;2023-06-04T00:09:22;33.20;73.30
64501;DHT22;50874;24.150;-110.320;2023-06-04T00:11:49;33.10;73.70
64501;DHT22;50874;24.150;-110.320;2023-06-04T00:14:15;32.70;73.90
64501;DHT22;50874;24.150;-110.320;2023-06-04T00:16:42;32.70;74.30
64501;DHT22;50874;24.150;-110.320;2023-06-04T00:19:09;32.70;74.40
64501;DHT22;50874;24.150;-110.320;2023-06-04T00:21:35;32.40;75.10
64501;DHT22;50874;24.150;-110.320;2023-06-04T00:24:02;32.40;75.00
64501;DHT22;50874;24.150;-110.320;2023-06-04T00:26:28;32.30;75.30
64501;DHT22;50874;24.150;-110.320;2023-06-04T00:28:55;32.20;75.40
64501;DHT22;50874;24.150;-110.320;2023-06-04T00:31:22;32.10;76.10
64501;DHT22;50874;24.150;-110.320;2023-06-04T00:33:48;32.10;76.20
64501;DHT22;50874;24.150;-110.320;2023-06-04T00:36:15;32.10;76.20
64501;DHT22;50874;24.150;-110.320;2023-06-04T00:38:41;31.80;76.50
64501;DHT22;50874;24.150;-110.320;2023-06-04T00:41:08;31.80;76.50
64501;DHT22;50874;24.150;-110.320;2023-06-04T00:43:34;31.60;76.80
64501;DHT22;50874;24.150;-110.320;2023-06-04T00:46:02;31.50;77.40
64501;DHT22;50874;24.150;-110.320;2023-06-04T00:48:29;31.50;77.40
64501;DHT22;50874;24.150;-110.320;2023-06-04T00:50:57;31.40;77.50
64501;DHT22;50874;24.150;-110.320;2023-06-04T00:53:24;31.30;77.70
64501;DHT22;50874;24.150;-110.320;2023-06-04T00:55:51;31.10;78.20
64501;DHT22;50874;24.150;-110.320;2023-06-04T00:58:18;31.10;78.70
64501;DHT22;50874;24.150;-110.320;2023-06-04T01:00:46;31.00;78.90
64501;DHT22;50874;24.150;-110.320;2023-06-04T01:03:19;30.90;79.20
64501;DHT22;50874;24.150;-110.320;2023-06-04T01:06:04;30.70;79.70
64501;DHT22;50874;24.150;-110.320;2023-06-04T01:08:35;30.70;80.00
64501;DHT22;50874;24.150;-110.320;2023-06-04T01:11:02;30.70;80.20
64501;DHT22;50874;24.150;-110.320;2023-06-04T01:13:29;30.60;80.50
64501;DHT22;50874;24.150;-110.320;2023-06-04T01:15:55;30.30;80.90
64501;DHT22;50874;24.150;-110.320;2023-06-04T01:18:27;30.10;81.80
64501;DHT22;50874;24.150;-110.320;2023-06-04T01:21:08;29.90;82.30
64501;DHT22;50874;24.150;-110.320;2023-06-04T01:23:50;29.60;83.10
64501;DHT22;50874;24.150;-110.320;2023-06-04T01:26:31;29.30;84.30
64501;DHT22;50874;24.150;-110.320;2023-06-04T01:29:01;29.10;85.00
64501;DHT22;50874;24.150;-110.320;2023-06-04T01:31:28;29.00;85.30
64501;DHT22;50874;24.150;-110.320;2023-06-04T01:33:58;28.90;85.70
64501;DHT22;50874;24.150;-110.320;2023-06-04T01:36:25;28.80;86.50
64501;DHT22;50874;24.150;-110.320;2023-06-04T01:38:52;28.70;86.90
64501;DHT22;50874;24.150;-110.320;2023-06-04T01:41:18;28.50;87.70
64501;DHT22;50874;24.150;-110.320;2023-06-04T01:43:45;28.20;88.70
64501;DHT22;50874;24.150;-110.320;2023-06-04T01:46:12;28.10;89.40
64501;DHT22;50874;24.150;-110.320;2023-06-04T01:48:38;27.90;90.00
64501;DHT22;50874;24.150;-110.320;2023-06-04T01:51:06;27.80;90.30
64501;DHT22;50874;24.150;-110.320;2023-06-04T01:53:33;27.70;90.70
64501;DHT22;50874;24.150;-110.320;2023-06-04T01:55:59;27.70;90.80
64501;DHT22;50874;24.150;-110.320;2023-06-04T01:58:27;27.50;91.20
64501;DHT22;50874;24.150;-110.320;2023-06-04T02:00:55;27.50;91.30
64501;DHT22;50874;24.150;-110.320;2023-06-04T02:03:22;27.30;91.80
64501;DHT22;50874;24.150;-110.320;2023-06-04T02:05:49;27.10;92.70
64501;DHT22;50874;24.150;-110.320;2023-06-04T02:08:16;26.80;93.00
64501;DHT22;50874;24.150;-110.320;2023-06-04T02:10:48;26.60;93.60
64501;DHT22;50874;24.150;-110.320;2023-06-04T02:13:15;26.60;94.00
64501;DHT22;50874;24.150;-110.320;2023-06-04T02:15:42;26.30;94.70
64501;DHT22;50874;24.150;-110.320;2023-06-04T02:18:15;26.20;95.40
64501;DHT22;50874;24.150;-110.320;2023-06-04T02:20:47;26.00;96.40
64501;DHT22;50874;24.150;-110.320;2023-06-04T02:23:15;25.80;96.90
64501;DHT22;50874;24.150;-110.320;2023-06-04T02:25:42;25.80;97.80
64501;DHT22;50874;24.150;-110.320;2023-06-04T02:28:12;25.60;98.30
64501;DHT22;50874;24.150;-110.320;2023-06-04T02:30:39;25.50;99.00
64501;DHT22;50874;24.150;-110.320;2023-06-04T02:33:05;25.20;99.90
64501;DHT22;50874;24.150;-110.320;2023-06-04T02:35:32;25.00;99.90
64501;DHT22;50874;24.150;-110.320;2023-06-04T02:37:58;25.00;99.90
64501;DHT22;50874;24.150;-110.320;2023-06-04T02:40:25;24.90;99.90
64501;DHT22;50874;24.150;-110.320;2023-06-04T02:42:55;24.90;99.90
64501;DHT22;50874;24.150;-110.320;2023-06-04T02:45:25;24.80;99.90
64501;DHT22;50874;24.150;-110.320;2023-06-04T02:47:52;24.60;99.90
64501;DHT22;50874;24.150;-110.320;2023-06-04T02:50:19;24.50;99.90
64501;DHT22;50874;24.150;-110.320;2023-06-04T02:52:45;24.30;99.90
64501;DHT22;50874;24.150;-110.320;2023-06-04T02:55:12;24.30;99.90
64501;DHT22;50874;24.150;-110.320;2023-06-04T02:57:40;24.20;99.90
64501;DHT22;50874;24.150;-110.320;2023-06-04T03:00:11;24.10;99.90
64501;DHT22;50874;24.150;-110.320;2023-06-04T03:02:43;24.10;99.90
64501;DHT22;50874;24.150;-110.320;2023-06-04T03:05:11;23.80;99.90
64501;DHT22;50874;24.150;-110.320;2023-06-04T03:07:39;23.70;99.90
64501;DHT22;50874;24.150;-110.320;2023-06-04T03:10:08;23.60;99.90
64501;DHT22;50874;24.150;-110.320;2023-06-04T03:12:34;23.60;99.90
64501;DHT22;50874;24.150;-110.320;2023-06-04T03:15:01;23.60;99.90
64501;DHT22;50874;24.150;-110.320;2023-06-04T03:17:28;23.60;99.90
64501;DHT22;50874;24.150;-110.320;2023-06-04T03:19:54;23.40;99.90
64501;DHT22;50874;24.150;-110.320;2023-06-04T03:22:22;23.20;99.90
64501;DHT22;50874;24.150;-110.320;2023-06-04T03:24:48;23.10;99.90
64501;DHT22;50874;24.150;-110.320;2023-06-04T03:27:15;23.00;99.90
64501;DHT22;50874;24.150;-110.320;2023-06-04T03:29:41;23.00;99.90
64501;DHT22;50874;24.150;-110.320;2023-06-04T03:32:08;22.80;99.90
64501;DHT22;50874;24.150;-110.320;2023-06-04T03:34:34;22.60;99.90
64501;DHT22;50874;24.150;-110.320;2023-06-04T03:37:01;22.60;99.90
64501;DHT22;50874;24.150;-110.320;2023-06-04T03:39:28;22.50;99.90
64501;DHT22;50874;24.150;-110.320;2023-06-04T03:41:54;22.60;99.90
64501;DHT22;50874;24.150;-110.320;2023-06-04T03:44:22;22.50;99.90
64501;DHT22;50874;24.150;-110.320;2023-06-04T03:46:48;22.40;99.90
64501;DHT22;50874;24.150;-110.320;2023-06-04T03:49:15;22.30;99.90
64501;DHT22;50874;24.150;-110.320;2023-06-04T03:51:43;22.10;99.90
64501;DHT22;50874;24.150;-110.320;2023-06-04T03:54:10;22.10;99.90
64501;DHT22;50874;24.150;-110.320;2023-06-04T03:56:38;22.00;99.90
64501;DHT22;50874;24.150;-110.320;2023-06-04T03:59:05;22.00;99.90
64501;DHT22;50874;24.150;-110.320;2023-06-04T04:01:31;21.90;99.90
64501;DHT22;50874;24.150;-110.320;2023-06-04T04:03:59;21.70;99.90
64501;DHT22;50874;24.150;-110.320;2023-06-04T04:06:26;21.70;99.90
64501;DHT22;50874;24.150;-110.320;2023-06-04T04:08:52;21.60;99.90
64501;DHT22;50874;24.150;-110.320;2023-06-04T04:11:19;21.60;99.90
64501;DHT22;50874;24.150;-110.320;2023-06-04T04:13:46;21.60;99.90
64501;DHT22;50874;24.150;-110.320;2023-06-04T04:16:12;21.40;99.90
64501;DHT22;50874;24.150;-110.320;2023-06-04T04:18:41;21.40;99.90
64501;DHT22;50874;24.150;-110.320;2023-06-04T04:21:09;21.40;99.90
64501;DHT22;50874;24.150;-110.320;2023-06-04T04:23:38;21.30;99.90
64501;DHT22;50874;24.150;-110.320;2023-06-04T04:26:06;21.30;99.90
64501;DHT22;50874;24.150;-110.320;2023-06-04T04:28:33;21.30;99.90
64501;DHT22;50874;24.150;-110.320;2023-06-04T04:31:00;21.20;99.90
64501;DHT22;50874;24.150;-110.320;2023-06-04T04:33:28;21.20;99.90
64501;DHT22;50874;24.150;-110.320;2023-06-04T04:35:58;21.30;99.90
64501;DHT22;50874;24.150;-110.320;2023-06-04T04:38:26;21.20;99.90
64501;DHT22;50874;24.150;-110.320;2023-06-04T04:40:54;21.10;99.90
64501;DHT22;50874;24.150;-110.320;2023-06-04T04:43:34;21.10;99.90
64501;DHT22;50874;24.150;-110.320;2023-06-04T04:46:01;21.00;99.90
64501;DHT22;50874;24.150;-110.320;2023-06-04T04:48:27;21.10;99.90
64501;DHT22;50874;24.150;-110.320;2023-06-04T04:50:54;21.00;99.90
64501;DHT22;50874;24.150;-110.320;2023-06-04T04:53:21;21.00;99.90
64501;DHT22;50874;24.150;-110.320;2023-06-04T04:55:47;21.00;99.90
64501;DHT22;50874;24.150;-110.320;2023-06-04T04:58:14;20.90;99.90
64501;DHT22;50874;24.150;-110.320;2023-06-04T05:00:41;21.00;99.90
64501;DHT22;50874;24.150;-110.320;2023-06-04T05:03:08;20.90;99.90
64501;DHT22;50874;24.150;-110.320;2023-06-04T05:05:34;20.90;99.90
64501;DHT22;50874;24.150;-110.320;2023-06-04T05:08:01;20.90;99.90
64501;DHT22;50874;24.150;-110.320;2023-06-04T05:10:30;20.90;99.90
64501;DHT22;50874;24.150;-110.320;2023-06-04T05:12:59;20.80;99.90
64501;DHT22;50874;24.150;-110.320;2023-06-04T05:15:28;20.70;99.90
64501;DHT22;50874;24.150;-110.320;2023-06-04T05:17:55;20.70;99.90
64501;DHT22;50874;24.150;-110.320;2023-06-04T05:20:22;20.60;99.90
64501;DHT22;50874;24.150;-110.320;2023-06-04T05:22:49;20.50;99.90
64501;DHT22;50874;24.150;-110.320;2023-06-04T05:25:16;20.50;99.90
64501;DHT22;50874;24.150;-110.320;2023-06-04T05:27:43;20.50;99.90
64501;DHT22;50874;24.150;-110.320;2023-06-04T05:30:10;20.50;99.90
64501;DHT22;50874;24.150;-110.320;2023-06-04T05:32:37;20.40;99.90
64501;DHT22;50874;24.150;-110.320;2023-06-04T05:35:07;20.30;99.90
64501;DHT22;50874;24.150;-110.320;2023-06-04T05:37:34;20.40;99.90
64501;DHT22;50874;24.150;-110.320;2023-06-04T05:40:01;20.40;99.90
64501;DHT22;50874;24.150;-110.320;2023-06-04T05:42:28;20.40;99.90
64501;DHT22;50874;24.150;-110.320;2023-06-04T05:44:55;20.40;99.90
64501;DHT22;50874;24.150;-110.320;2023-06-04T05:47:21;20.30;99.90
64501;DHT22;50874;24.150;-110.320;2023-06-04T05:49:48;20.30;99.90
64501;DHT22;50874;24.150;-110.320;2023-06-04T05:52:14;20.30;99.90
64501;DHT22;50874;24.150;-110.320;2023-06-04T05:54:41;20.20;99.90
64501;DHT22;50874;24.150;-110.320;2023-06-04T05:57:07;20.20;99.90
64501;DHT22;50874;24.150;-110.320;2023-06-04T05:59:34;20.30;99.90
64501;DHT22;50874;24.150;-110.320;2023-06-04T06:02:00;20.20;99.90
64501;DHT22;50874;24.150;-110.320;2023-06-04T06:04:28;20.10;99.90
64501;DHT22;50874;24.150;-110.320;2023-06-04T06:06:55;20.10;99.90
64501;DHT22;50874;24.150;-110.320;2023-06-04T06:09:22;20.10;99.90
64501;DHT22;50874;24.150;-110.320;2023-06-04T06:11:48;20.00;99.90
64501;DHT22;50874;24.150;-110.320;2023-06-04T06:14:14;19.90;99.90
64501;DHT22;50874;24.150;-110.320;2023-06-04T06:16:41;19.90;99.90
64501;DHT22;50874;24.150;-110.320;2023-06-04T06:19:08;19.90;99.90
64501;DHT22;50874;24.150;-110.320;2023-06-04T06:21:34;19.90;99.90
64501;DHT22;50874;24.150;-110.320;2023-06-04T06:24:02;19.90;99.90
64501;DHT22;50874;24.150;-110.320;2023-06-04T06:26:28;19.80;99.90
64501;DHT22;50874;24.150;-110.320;2023-06-04T06:28:55;19.80;99.90
64501;DHT22;50874;24.150;-110.320;2023-06-04T06:31:22;19.90;99.90
64501;DHT22;50874;24.150;-110.320;2023-06-04T06:33:49;19.80;99.90
64501;DHT22;50874;24.150;-110.320;2023-06-04T06:36:15;19.80;99.90
64501;DHT22;50874;24.150;-110.320;2023-06-04T06:38:42;19.80;99.90
64501;DHT22;50874;24.150;-110.320;2023-06-04T06:41:09;19.70;99.90
64501;DHT22;50874;24.150;-110.320;2023-06-04T06:43:35;19.70;99.90
64501;DHT22;50874;24.150;-110.320;2023-06-04T06:46:02;19.50;99.90
64501;DHT22;50874;24.150;-110.320;2023-06-04T06:48:28;19.50;99.90
64501;DHT22;50874;24.150;-110.320;2023-06-04T06:50:55;19.40;99.90
64501;DHT22;50874;24.150;-110.320;2023-06-04T06:53:22;19.40;99.90
64501;DHT22;50874;24.150;-110.320;2023-06-04T06:55:48;19.40;99.90
64501;DHT22;50874;24.150;-110.320;2023-06-04T06:58:15;19.30;99.90
64501;DHT22;50874;24.150;-110.320;2023-06-04T07:00:41;19.30;99.90
64501;DHT22;50874;24.150;-110.320;2023-06-04T07:03:07;19.20;99.90
64501;DHT22;50874;24.150;-110.320;2023-06-04T07:05:34;19.00;99.90
64501;DHT22;50874;24.150;-110.320;2023-06-04T07:08:00;18.90;99.90
64501;DHT22;50874;24.150;-110.320;2023-06-04T07:10:29;18.90;99.90
64501;DHT22;50874;24.150;-110.320;2023-06-04T07:12:56;18.80;99.90
64501;DHT22;50874;24.150;-110.320;2023-06-04T07:15:22;18.70;99.90
64501;DHT22;50874;24.150;-110.320;2023-06-04T07:17:49;18.80;99.90
64501;DHT22;50874;24.150;-110.320;2023-06-04T07:20:16;18.70;99.90
64501;DHT22;50874;24.150;-110.320;2023-06-04T07:22:42;18.70;99.90
64501;DHT22;50874;24.150;-110.320;2023-06-04T07:25:08;18.70;99.90
64501;DHT22;50874;24.150;-110.320;2023-06-04T07:27:35;18.60;99.90
64501;DHT22;50874;24.150;-110.320;2023-06-04T07:30:02;18.60;99.90
64501;DHT22;50874;24.150;-110.320;2023-06-04T07:32:28;18.60;99.90
64501;DHT22;50874;24.150;-110.320;2023-06-04T07:34:55;18.60;99.90
64501;DHT22;50874;24.150;-110.320;2023-06-04T07:37:21;18.60;99.90
64501;DHT22;50874;24.150;-110.320;2023-06-04T07:39:48;18.50;99.90
64501;DHT22;50874;24.150;-110.320;2023-06-04T07:42:14;18.50;99.90
64501;DHT22;50874;24.150;-110.320;2023-06-04T07:44:41;18.50;99.90
64501;DHT22;50874;24.150;-110.320;2023-06-04T07:47:07;18.50;99.90
64501;DHT22;50874;24.150;-110.320;2023-06-04T07:49:33;18.50;99.90
64501;DHT22;50874;24.150;-110.320;2023-06-04T07:52:00;18.50;99.90
64501;DHT22;50874;24.150;-110.320;2023-06-04T07:54:26;18.40;99.90
64501;DHT22;50874;24.150;-110.320;2023-06-04T07:56:53;18.40;99.90
64501;DHT22;50874;24.150;-110.320;2023-06-04T07:59:23;18.40;99.90
64501;DHT22;50874;24.150;-110.320;2023-06-04T08:01:52;18.40;99.90
64501;DHT22;50874;24.150;-110.320;2023-06-04T08:04:18;18.30;99.90
64501;DHT22;50874;24.150;-110.320;2023-06-04T08:06:45;18.30;99.90
64501;DHT22;50874;24.150;-110.320;2023-06-04T08:09:12;18.30;99.90
64501;DHT22;50874;24.150;-110.320;2023-06-04T08:11:40;18.20;99.90
64501;DHT22;50874;24.150;-110.320;2023-06-04T08:14:09;18.20;99.90
64501;DHT22;50874;24.150;-110.320;2023-06-04T08:16:36;18.10;99.90
64501;DHT22;50874;24.150;-110.320;2023-06-04T08:19:03;18.10;99.90
64501;DHT22;50874;24.150;-110.320;2023-06-04T08:21:29;18.10;99.90
64501;DHT22;50874;24.150;-110.320;2023-06-04T08:23:56;18.10;99.90
64501;DHT22;50874;24.150;-110.320;2023-06-04T08:26:22;18.00;99.90
64501;DHT22;50874;24.150;-110.320;2023-06-04T08:28:50;18.00;99.90
64501;DHT22;50874;24.150;-110.320;2023-06-04T08:31:17;18.00;99.90
64501;DHT22;50874;24.150;-110.320;2023-06-04T08:33:45;17.90;99.90
64501;DHT22;50874;24.150;-110.320;2023-06-04T08:36:12;17.80;99.90
64501;DHT22;50874;24.150;-110.320;2023-06-04T08:38:38;17.80;99.90
64501;DHT22;50874;24.150;-110.320;2023-06-04T08:41:15;17.80;99.90
64501;DHT22;50874;24.150;-110.320;2023-06-04T08:43:42;17.80;99.90
64501;DHT22;50874;24.150;-110.320;2023-06-04T08:46:13;17.80;99.90
64501;DHT22;50874;24.150;-110.320;2023-06-04T08:48:40;17.70;99.90
64501;DHT22;50874;24.150;-110.320;2023-06-04T08:51:07;17.80;99.90
64501;DHT22;50874;24.150;-110.320;2023-06-04T08:53:35;17.90;99.90
64501;DHT22;50874;24.150;-110.320;2023-06-04T08:56:05;17.90;99.90
64501;DHT22;50874;24.150;-110.320;2023-06-04T08:58:32;18.00;99.90
64501;DHT22;50874;24.150;-110.320;2023-06-04T09:01:00;18.00;99.90
64501;DHT22;50874;24.150;-110.320;2023-06-04T09:03:28;18.10;99.90
64501;DHT22;50874;24.150;-110.320;2023-06-04T09:05:59;18.10;99.90
64501;DHT22;50874;24.150;-110.320;2023-06-04T09:08:29;18.10;99.90
64501;DHT22;50874;24.150;-110.320;2023-06-04T09:10:57;18.20;99.90
64501;DHT22;50874;24.150;-110.320;2023-06-04T09:13:29;18.10;99.90
64501;DHT22;50874;24.150;-110.320;2023-06-04T09:16:05;18.20;99.90
64501;DHT22;50874;24.150;-110.320;2023-06-04T09:18:34;18.20;99.90
64501;DHT22;50874;24.150;-110.320;2023-06-04T09:21:05;18.20;99.90
64501;DHT22;50874;24.150;-110.320;2023-06-04T09:23:44;18.20;99.90
64501;DHT22;50874;24.150;-110.320;2023-06-04T09:26:11;18.20;99.90
64501;DHT22;50874;24.150;-110.320;2023-06-04T09:28:41;18.20;99.90
64501;DHT22;50874;24.150;-110.320;2023-06-04T09:31:15;18.20;99.90
64501;DHT22;50874;24.150;-110.320;2023-06-04T09:33:47;18.20;99.90
64501;DHT22;50874;24.150;-110.320;2023-06-04T09:36:13;18.30;99.90
64501;DHT22;50874;24.150;-110.320;2023-06-04T09:38:40;18.30;99.90
64501;DHT22;50874;24.150;-110.320;2023-06-04T09:41:14;18.30;99.90
64501;DHT22;50874;24.150;-110.320;2023-06-04T09:43:41;18.30;99.90
64501;DHT22;50874;24.150;-110.320;2023-06-04T09:46:14;18.30;99.90
64501;DHT22;50874;24.150;-110.320;2023-06-04T09:48:42;18.30;99.90
64501;DHT22;50874;24.150;-110.320;2023-06-04T09:51:10;18.40;99.90
64501;DHT22;50874;24.150;-110.320;2023-06-04T09:53:38;18.40;99.90
64501;DHT22;50874;24.150;-110.320;2023-06-04T09:56:05;18.40;99.90
64501;DHT22;50874;24.150;-110.320;2023-06-04T09:58:38;18.40;99.90
64501;DHT22;50874;24.150;-110.320;2023-06-04T10:01:05;18.30;99.90
64501;DHT22;50874;24.150;-110.320;2023-06-04T10:03:34;18.40;99.90
64501;DHT22;50874;24.150;-110.320;2023-06-04T10:06:03;18.40;99.90
64501;DHT22;50874;24.150;-110.320;2023-06-04T10:08:30;18.40;99.90
64501;DHT22;50874;24.150;-110.320;2023-06-04T10:10:59;18.40;99.90
64501;DHT22;50874;24.150;-110.320;2023-06-04T10:13:35;18.40;99.90
64501;DHT22;50874;24.150;-110.320;2023-06-04T10:16:06;18.40;99.90
64501;DHT22;50874;24.150;-110.320;2023-06-04T10:18:33;18.40;99.90
64501;DHT22;50874;24.150;-110.320;2023-06-04T10:21:00;18.50;99.90
64501;DHT22;50874;24.150;-110.320;2023-06-04T10:23:27;18.50;99.90
64501;DHT22;50874;24.150;-110.320;2023-06-04T10:25:55;18.50;99.90
64501;DHT22;50874;24.150;-110.320;2023-06-04T10:28:23;18.50;99.90
64501;DHT22;50874;24.150;-110.320;2023-06-04T10:30:50;18.50;99.90
64501;DHT22;50874;24.150;-110.320;2023-06-04T10:33:20;18.40;99.90
64501;DHT22;50874;24.150;-110.320;2023-06-04T10:35:54;18.40;99.90
64501;DHT22;50874;24.150;-110.320;2023-06-04T10:38:23;18.40;99.90
64501;DHT22;50874;24.150;-110.320;2023-06-04T10:40:50;18.30;99.90
64501;DHT22;50874;24.150;-110.320;2023-06-04T10:43:17;18.30;99.90
64501;DHT22;50874;24.150;-110.320;2023-06-04T10:45:44;18.20;99.90
64501;DHT22;50874;24.150;-110.320;2023-06-04T10:48:12;18.10;99.90
64501;DHT22;50874;24.150;-110.320;2023-06-04T10:50:50;18.10;99.90
64501;DHT22;50874;24.150;-110.320;2023-06-04T10:53:18;18.00;99.90
64501;DHT22;50874;24.150;-110.320;2023-06-04T10:55:49;17.90;99.90
64501;DHT22;50874;24.150;-110.320;2023-06-04T10:58:16;17.90;99.90
64501;DHT22;50874;24.150;-110.320;2023-06-04T11:00:45;17.80;99.90
64501;DHT22;50874;24.150;-110.320;2023-06-04T11:03:13;17.80;99.90
64501;DHT22;50874;24.150;-110.320;2023-06-04T11:05:44;17.80;99.90
64501;DHT22;50874;24.150;-110.320;2023-06-04T11:08:12;17.70;99.90
64501;DHT22;50874;24.150;-110.320;2023-06-04T11:10:45;17.60;99.90
64501;DHT22;50874;24.150;-110.320;2023-06-04T11:13:12;17.60;99.90
64501;DHT22;50874;24.150;-110.320;2023-06-04T11:15:43;17.50;99.90
64501;DHT22;50874;24.150;-110.320;2023-06-04T11:18:18;17.50;99.90
64501;DHT22;50874;24.150;-110.320;2023-06-04T11:20:46;17.40;99.90
64501;DHT22;50874;24.150;-110.320;2023-06-04T11:23:13;17.30;99.90
64501;DHT22;50874;24.150;-110.320;2023-06-04T11:25:41;17.30;99.90
64501;DHT22;50874;24.150;-110.320;2023-06-04T11:28:17;17.20;99.90
64501;DHT22;50874;24.150;-110.320;2023-06-04T11:30:55;17.20;99.90
64501;DHT22;50874;24.150;-110.320;2023-06-04T11:33:21;17.10;99.90
64501;DHT22;50874;24.150;-110.320;2023-06-04T11:35:48;17.00;99.90
64501;DHT22;50874;24.150;-110.320;2023-06-04T11:38:14;16.90;99.90
64501;DHT22;50874;24.150;-110.320;2023-06-04T11:40:41;16.90;99.90
64501;DHT22;50874;24.150;-110.320;2023-06-04T11:43:12;16.90;99.90
64501;DHT22;50874;24.150;-110.320;2023-06-04T11:45:40;16.80;99.90
64501;DHT22;50874;24.150;-110.320;2023-06-04T11:48:06;16.90;99.90
64501;DHT22;50874;24.150;-110.320;2023-06-04T11:50:37;16.90;99.90
64501;DHT22;50874;24.150;-110.320;2023-06-04T11:53:03;16.90;99.90
64501;DHT22;50874;24.150;-110.320;2023-06-04T11:55:30;17.00;99.90
64501;DHT22;50874;24.150;-110.320;2023-06-04T11:57:56;17.00;99.90
64501;DHT22;50874;24.150;-110.320;2023-06-04T12:00:23;17.00;99.90
64501;DHT22;50874;24.150;-110.320;2023-06-04T12:02:55;17.00;99.90
64501;DHT22;50874;24.150;-110.320;2023-06-04T12:05:31;17.00;99.90
64501;DHT22;50874;24.150;-110.320;2023-06-04T12:08:05;17.00;99.90
64501;DHT22;50874;24.150;-110.320;2023-06-04T12:10:40;17.00;99.90
64501;DHT22;50874;24.150;-110.320;2023-06-04T12:13:07;17.00;99.90
64501;DHT22;50874;24.150;-110.320;2023-06-04T12:15:34;16.90;99.90
64501;DHT22;50874;24.150;-110.320;2023-06-04T12:18:01;16.90;99.90
64501;DHT22;50874;24.150;-110.320;2023-06-04T12:20:37;16.80;99.90
64501;DHT22;50874;24.150;-110.320;2023-06-04T12:23:05;16.90;99.90
64501;DHT22;50874;24.150;-110.320;2023-06-04T12:25:32;16.80;99.90
64501;DHT22;50874;24.150;-110.320;2023-06-04T12:27:59;16.80;99.90
64501;DHT22;50874;24.150;-110.320;2023-06-04T12:30:40;16.80;99.90
64501;DHT22;50874;24.150;-110.320;2023-06-04T12:33:07;16.90;99.90
64501;DHT22;50874;24.150;-110.320;2023-06-04T12:35:34;16.90;99.90
64501;DHT22;50874;24.150;-110.320;2023-06-04T12:38:03;17.00;99.90
64501;DHT22;50874;24.150;-110.320;2023-06-04T12:40:30;17.00;99.90
64501;DHT22;50874;24.150;-110.320;2023-06-04T12:42:56;17.00;99.90
64501;DHT22;50874;24.150;-110.320;2023-06-04T12:45:23;17.10;99.90
64501;DHT22;50874;24.150;-110.320;2023-06-04T12:47:49;17.10;99.90
64501;DHT22;50874;24.150;-110.320;2023-06-04T12:50:16;17.10;99.90
64501;DHT22;50874;24.150;-110.320;2023-06-04T12:52:44;17.30;99.90
64501;DHT22;50874;24.150;-110.320;2023-06-04T12:55:10;17.60;99.90
64501;DHT22;50874;24.150;-110.320;2023-06-04T12:57:37;17.90;99.90
64501;DHT22;50874;24.150;-110.320;2023-06-04T13:00:03;18.30;99.90
64501;DHT22;50874;24.150;-110.320;2023-06-04T13:02:30;18.60;99.90
64501;DHT22;50874;24.150;-110.320;2023-06-04T13:04:57;19.00;99.90
64501;DHT22;50874;24.150;-110.320;2023-06-04T13:07:23;19.30;99.90
64501;DHT22;50874;24.150;-110.320;2023-06-04T13:09:50;19.70;99.90
64501;DHT22;50874;24.150;-110.320;2023-06-04T13:12:16;20.00;99.90
64501;DHT22;50874;24.150;-110.320;2023-06-04T13:14:43;20.50;99.90
64501;DHT22;50874;24.150;-110.320;2023-06-04T13:17:09;20.90;99.90
64501;DHT22;50874;24.150;-110.320;2023-06-04T13:19:36;21.30;99.90
64501;DHT22;50874;24.150;-110.320;2023-06-04T13:22:02;21.80;99.90
64501;DHT22;50874;24.150;-110.320;2023-06-04T13:24:29;22.20;99.90
64501;DHT22;50874;24.150;-110.320;2023-06-04T13:26:55;22.60;99.90
64501;DHT22;50874;24.150;-110.320;2023-06-04T13:29:24;23.00;99.90
64501;DHT22;50874;24.150;-110.320;2023-06-04T13:31:50;23.40;99.90
64501;DHT22;50874;24.150;-110.320;2023-06-04T13:34:18;23.80;99.90
64501;DHT22;50874;24.150;-110.320;2023-06-04T13:36:45;24.10;99.90
64501;DHT22;50874;24.150;-110.320;2023-06-04T13:39:11;24.50;99.90
64501;DHT22;50874;24.150;-110.320;2023-06-04T13:41:37;24.80;99.90
64501;DHT22;50874;24.150;-110.320;2023-06-04T13:44:04;25.10;99.90
64501;DHT22;50874;24.150;-110.320;2023-06-04T13:46:30;25.10;99.90
64501;DHT22;50874;24.150;-110.320;2023-06-04T13:48:57;25.20;99.90
64501;DHT22;50874;24.150;-110.320;2023-06-04T13:51:23;25.40;99.90
64501;DHT22;50874;24.150;-110.320;2023-06-04T13:53:50;25.50;99.90
64501;DHT22;50874;24.150;-110.320;2023-06-04T13:56:19;25.70;99.90
64501;DHT22;50874;24.150;-110.320;2023-06-04T13:58:46;25.70;99.90
64501;DHT22;50874;24.150;-110.320;2023-06-04T14:01:12;25.50;99.90
64501;DHT22;50874;24.150;-110.320;2023-06-04T14:03:38;25.40;99.90
64501;DHT22;50874;24.150;-110.320;2023-06-04T14:06:06;25.60;99.90
64501;DHT22;50874;24.150;-110.320;2023-06-04T14:08:32;25.70;99.90
64501;DHT22;50874;24.150;-110.320;2023-06-04T14:10:59;25.70;99.90
64501;DHT22;50874;24.150;-110.320;2023-06-04T14:13:25;25.90;99.90
64501;DHT22;50874;24.150;-110.320;2023-06-04T14:15:52;26.10;99.90
64501;DHT22;50874;24.150;-110.320;2023-06-04T14:18:18;26.10;99.90
64501;DHT22;50874;24.150;-110.320;2023-06-04T14:20:45;26.20;99.90
64501;DHT22;50874;24.150;-110.320;2023-06-04T14:23:11;26.30;99.90
64501;DHT22;50874;24.150;-110.320;2023-06-04T14:25:38;26.30;99.90
64501;DHT22;50874;24.150;-110.320;2023-06-04T14:28:04;26.50;99.90
64501;DHT22;50874;24.150;-110.320;2023-06-04T14:30:31;26.50;99.90
64501;DHT22;50874;24.150;-110.320;2023-06-04T14:32:57;26.60;99.90
64501;DHT22;50874;24.150;-110.320;2023-06-04T14:35:24;26.90;99.90
64501;DHT22;50874;24.150;-110.320;2023-06-04T14:37:51;27.20;99.40
64501;DHT22;50874;24.150;-110.320;2023-06-04T14:40:17;27.30;99.00
64501;DHT22;50874;24.150;-110.320;2023-06-04T14:42:44;27.60;98.80
64501;DHT22;50874;24.150;-110.320;2023-06-04T14:45:10;27.90;98.40
64501;DHT22;50874;24.150;-110.320;2023-06-04T14:47:37;28.30;97.50
64501;DHT22;50874;24.150;-110.320;2023-06-04T14:50:03;28.40;97.00
64501;DHT22;50874;24.150;-110.320;2023-06-04T14:52:30;28.70;96.70